Time;durP1;ratioP1;P1;durP2;ratioP2;P2;SDS_P1;SDS_P2;PMS_P1;PMS_P2;Temp;Humidity;BMP_temperature;BMP_pressure;BME280_temperature;BME280_humidity;BME280_pressure;Samples;Min_cycle;Max_cycle;Signal;HPM_P1;HPM_P2
2022/12/19 00:00:32;;;;;;;33.73;13.33;;;-1.20;99.90;;;;;;5021869;28;20479;-67
2022/12/19 00:02:58;;;;;;;32.27;13.30;;;-1.20;99.90;;;;;;5029367;28;20424;-67
2022/12/19 00:05:24;;;;;;;32.60;14.20;;;-1.20;99.90;;;;;;5027333;28;20182;-67
2022/12/19 00:07:50;;;;;;;31.27;12.97;;;-1.10;99.90;;;;;;5023526;28;20189;-67
2022/12/19 00:10:15;;;;;;;31.00;12.27;;;-1.10;99.90;;;;;;5028638;28;20511;-67
2022/12/19 00:12:41;;;;;;;28.23;12.50;;;-1.00;99.90;;;;;;5034264;28;20421;-67
2022/12/19 00:15:07;;;;;;;40.30;13.73;;;-1.00;99.90;;;;;;5037406;28;20264;-67
2022/12/19 00:17:33;;;;;;;25.07;12.30;;;-0.90;99.90;;;;;;5028458;28;20192;-67
2022/12/19 00:19:58;;;;;;;32.00;12.87;;;-0.90;99.90;;;;;;5051638;28;20416;-67
2022/12/19 00:22:24;;;;;;;41.50;13.77;;;-0.90;99.90;;;;;;5053710;28;20227;-67
2022/12/19 00:24:49;;;;;;;30.27;12.20;;;-0.90;99.90;;;;;;5054565;28;20201;-67
2022/12/19 00:27:15;;;;;;;34.83;12.67;;;-0.90;99.90;;;;;;5041236;28;20188;-67
2022/12/19 00:29:41;;;;;;;33.60;13.30;;;-0.90;99.90;;;;;;5054159;28;20576;-67
2022/12/19 00:32:06;;;;;;;40.03;13.90;;;-0.90;99.90;;;;;;5053810;28;20238;-67
2022/12/19 00:34:32;;;;;;;31.23;12.80;;;-0.90;99.90;;;;;;5041108;28;20178;-68
2022/12/19 00:36:57;;;;;;;30.97;12.60;;;-0.90;99.90;;;;;;5053784;28;20781;-67
2022/12/19 00:39:23;;;;;;;30.07;12.60;;;-0.80;99.90;;;;;;5054053;28;20269;-67
2022/12/19 00:41:48;;;;;;;28.60;10.70;;;-0.80;99.90;;;;;;5053447;28;20634;-68
2022/12/19 00:44:14;;;;;;;25.23;11.80;;;-0.80;99.90;;;;;;5040881;28;20194;-67
2022/12/19 00:46:40;;;;;;;24.17;11.83;;;-0.70;99.90;;;;;;5053223;28;20173;-67
2022/12/19 00:49:06;;;;;;;31.83;11.67;;;-0.70;99.90;;;;;;5053687;28;20216;-67
2022/12/19 00:51:34;;;;;;;30.00;12.13;;;-0.70;99.90;;;;;;5039814;28;20416;-67
2022/12/19 00:54:00;;;;;;;27.90;11.50;;;-0.70;99.90;;;;;;5053167;28;20798;-67
2022/12/19 00:56:31;;;;;;;23.80;11.53;;;-0.70;99.90;;;;;;5053842;28;20426;-67
2022/12/19 00:58:57;;;;;;;27.80;11.80;;;-0.70;99.90;;;;;;5049952;28;20439;-67
2022/12/19 01:01:26;;;;;;;34.83;13.70;;;-0.70;99.90;;;;;;5043602;28;21126;-68
2022/12/19 01:03:52;;;;;;;26.87;11.60;;;-0.70;99.90;;;;;;5036279;28;20938;-68
2022/12/19 01:06:19;;;;;;;25.53;11.37;;;-0.70;99.90;;;;;;5043847;28;20424;-68
2022/12/19 01:08:44;;;;;;;30.40;11.63;;;-0.70;99.90;;;;;;5036383;28;20464;-68
2022/12/19 01:11:10;;;;;;;25.20;10.23;;;-0.60;99.90;;;;;;5033685;28;20902;-67
2022/12/19 01:13:37;;;;;;;23.60;10.60;;;-0.60;99.90;;;;;;5037341;28;20190;-68
2022/12/19 01:16:05;;;;;;;22.43;10.07;;;-0.60;99.90;;;;;;5046502;28;20198;-68
2022/12/19 01:18:31;;;;;;;31.43;12.20;;;-0.50;99.90;;;;;;5049240;28;20463;-67
2022/12/19 01:20:59;;;;;;;24.73;11.83;;;-0.50;99.90;;;;;;5032954;28;20429;-68
2022/12/19 01:23:25;;;;;;;38.00;12.93;;;-0.50;99.90;;;;;;5036187;28;20646;-68
2022/12/19 01:25:55;;;;;;;26.17;12.13;;;-0.50;99.90;;;;;;5053355;28;20424;-67
2022/12/19 01:28:20;;;;;;;26.20;12.13;;;-0.50;99.90;;;;;;5048519;28;20555;-67
2022/12/19 01:30:46;;;;;;;29.47;10.73;;;-0.50;99.90;;;;;;5032935;28;20513;-67
2022/12/19 01:33:14;;;;;;;29.40;12.23;;;-0.40;99.90;;;;;;5050567;28;20901;-68
2022/12/19 01:35:41;;;;;;;35.37;11.67;;;-0.50;99.90;;;;;;5037065;28;20240;-68
2022/12/19 01:38:07;;;;;;;30.97;12.50;;;-0.40;99.90;;;;;;5037325;28;20461;-68
2022/12/19 01:40:33;;;;;;;28.27;12.43;;;-0.40;99.90;;;;;;5053082;28;20444;-67
2022/12/19 01:43:00;;;;;;;27.53;12.80;;;-0.40;99.90;;;;;;5052452;28;20783;-67
2022/12/19 01:45:31;;;;;;;26.30;12.00;;;-0.40;99.90;;;;;;5051246;28;20431;-68
2022/12/19 01:48:13;;;;;;;37.00;12.23;;;-0.40;99.90;;;;;;5052495;28;20416;-68
2022/12/19 01:50:55;;;;;;;28.27;12.40;;;-0.40;99.90;;;;;;5052676;28;20438;-67
2022/12/19 01:53:26;;;;;;;25.47;11.50;;;-0.30;99.90;;;;;;5042524;28;20850;-68
2022/12/19 01:55:53;;;;;;;28.20;12.47;;;-0.30;99.90;;;;;;5049984;28;20428;-68
2022/12/19 01:58:19;;;;;;;23.27;9.70;;;-0.30;99.90;;;;;;5052253;28;20447;-67
2022/12/19 02:00:45;;;;;;;34.10;13.17;;;-0.30;99.90;;;;;;5028436;28;20453;-67
2022/12/19 02:03:14;;;;;;;25.90;13.27;;;-0.30;99.90;;;;;;5036829;28;20253;-67
2022/12/19 02:05:40;;;;;;;30.27;12.97;;;-0.40;99.90;;;;;;5045920;28;20177;-67
2022/12/19 02:08:06;;;;;;;32.40;14.17;;;-0.30;99.90;;;;;;5052002;28;20471;-67
2022/12/19 02:10:32;;;;;;;29.77;12.70;;;-0.30;99.90;;;;;;5033766;28;20437;-67
2022/12/19 02:12:58;;;;;;;31.63;13.10;;;-0.20;99.90;;;;;;5042351;28;20428;-67
2022/12/19 02:15:28;;;;;;;38.40;11.40;;;-0.10;99.90;;;;;;5049073;28;20607;-67
2022/12/19 02:18:00;;;;;;;29.00;12.13;;;-0.10;99.90;;;;;;5038638;28;20432;-68
2022/12/19 02:20:45;;;;;;;24.30;11.57;;;0.00;99.90;;;;;;5045681;28;20413;-67
2022/12/19 02:23:25;;;;;;;32.00;12.60;;;0.00;99.90;;;;;;5051121;28;20435;-67
2022/12/19 02:25:56;;;;;;;31.10;10.77;;;0.10;99.90;;;;;;5052221;28;20505;-67
2022/12/19 02:28:34;;;;;;;35.17;14.00;;;0.10;99.90;;;;;;5052288;28;20456;-68
2022/12/19 02:31:33;;;;;;;29.77;12.27;;;0.00;99.90;;;;;;5047811;28;20421;-68
2022/12/19 02:34:13;;;;;;;28.83;14.03;;;0.00;99.90;;;;;;5046180;28;20448;-67
2022/12/19 02:37:00;;;;;;;24.10;11.63;;;0.00;99.90;;;;;;5051868;28;20408;-68
2022/12/19 02:39:55;;;;;;;31.97;13.07;;;-0.10;99.90;;;;;;5026011;28;20873;-68
2022/12/19 02:42:34;;;;;;;25.43;11.23;;;-0.10;99.90;;;;;;5051394;28;20416;-68
2022/12/19 02:45:02;;;;;;;33.30;11.53;;;-0.10;99.90;;;;;;5039000;28;20419;-68
2022/12/19 02:47:31;;;;;;;31.20;12.83;;;-0.10;99.90;;;;;;5045425;28;20486;-68
2022/12/19 02:49:56;;;;;;;34.20;13.70;;;0.10;99.90;;;;;;5031835;28;20767;-68
2022/12/19 02:52:22;;;;;;;38.60;14.80;;;0.10;99.90;;;;;;5037452;28;20421;-68
2022/12/19 02:54:52;;;;;;;25.30;10.47;;;0.00;99.90;;;;;;5044662;28;20186;-68
2022/12/19 02:57:27;;;;;;;31.20;12.97;;;0.00;99.90;;;;;;5051713;28;20214;-68
2022/12/19 03:00:12;;;;;;;24.90;12.00;;;0.00;99.90;;;;;;5051096;28;21000;-67
2022/12/19 03:03:20;;;;;;;34.93;11.70;;;0.00;99.90;;;;;;5027318;28;20431;-68
2022/12/19 03:06:23;;;;;;;25.60;11.47;;;0.10;99.90;;;;;;5044803;28;20976;-68
2022/12/19 03:09:14;;;;;;;28.57;11.67;;;0.00;99.90;;;;;;5019837;28;21187;-67
2022/12/19 03:11:41;;;;;;;30.83;12.40;;;0.00;99.90;;;;;;5028073;28;20428;-68
2022/12/19 03:14:18;;;;;;;26.40;11.13;;;0.10;99.90;;;;;;5040129;28;20412;-68
2022/12/19 03:16:44;;;;;;;24.57;10.30;;;0.10;99.90;;;;;;5044545;28;20440;-68
2022/12/19 03:19:13;;;;;;;27.50;11.70;;;0.10;99.90;;;;;;5041273;28;20447;-68
2022/12/19 03:21:44;;;;;;;24.83;10.30;;;0.20;99.90;;;;;;5037930;28;20477;-68
2022/12/19 03:24:11;;;;;;;19.57;10.67;;;0.20;99.90;;;;;;5051109;28;20412;-68
2022/12/19 03:26:43;;;;;;;22.50;11.40;;;0.20;99.90;;;;;;5051231;28;20798;-68
2022/12/19 03:29:36;;;;;;;24.93;10.73;;;0.30;99.90;;;;;;5050580;28;20490;-68
2022/12/19 03:32:05;;;;;;;26.17;11.03;;;0.30;99.90;;;;;;5020486;28;20452;-68
2022/12/19 03:34:38;;;;;;;33.17;12.90;;;0.40;99.90;;;;;;5047390;28;20447;-67
2022/12/19 03:37:10;;;;;;;23.10;11.30;;;0.40;99.90;;;;;;5050992;28;20526;-68
2022/12/19 03:39:37;;;;;;;24.87;10.87;;;0.30;99.90;;;;;;5050845;28;20412;-67
2022/12/19 03:44:51;;;;;;;27.63;11.67;;;0.40;99.90;;;;;;5042223;28;20417;-68
2022/12/19 03:47:27;;;;;;;25.00;9.73;;;0.40;99.90;;;;;;5032772;28;20464;-67
2022/12/19 03:49:53;;;;;;;34.07;12.07;;;0.40;99.90;;;;;;5050420;28;20478;-68
2022/12/19 03:52:45;;;;;;;34.67;11.37;;;0.40;99.90;;;;;;5049997;28;20917;-68
2022/12/19 03:55:40;;;;;;;28.60;10.90;;;0.40;99.90;;;;;;5037620;28;20412;-68
2022/12/19 03:58:08;;;;;;;21.90;9.47;;;0.50;99.90;;;;;;5050609;28;20876;-68
2022/12/19 04:00:36;;;;;;;28.73;11.83;;;0.60;99.90;;;;;;5029875;28;20780;-67
2022/12/19 04:03:04;;;;;;;20.80;9.33;;;0.70;99.90;;;;;;5028962;28;20479;-67
2022/12/19 04:05:30;;;;;;;31.40;13.00;;;0.70;99.90;;;;;;5046919;28;20419;-68
2022/12/19 04:08:01;;;;;;;32.77;10.97;;;0.70;99.90;;;;;;5038849;28;20420;-67
2022/12/19 04:10:28;;;;;;;23.80;9.57;;;0.70;99.90;;;;;;5031494;28;20423;-68
2022/12/19 04:13:03;;;;;;;30.90;12.00;;;0.70;99.90;;;;;;5033958;28;20423;-68
2022/12/19 04:15:50;;;;;;;31.33;11.07;;;0.70;99.90;;;;;;5029970;28;20427;-67
2022/12/19 04:18:18;;;;;;;34.63;13.70;;;0.60;99.90;;;;;;5050872;28;20524;-67
2022/12/19 04:21:09;;;;;;;22.00;10.63;;;0.60;99.90;;;;;;5041312;28;20490;-67
2022/12/19 04:23:42;;;;;;;21.63;10.57;;;0.60;99.90;;;;;;5036476;28;20490;-67
2022/12/19 04:26:10;;;;;;;23.73;10.33;;;0.60;99.90;;;;;;5050444;28;20779;-68
2022/12/19 04:28:49;;;;;;;26.33;10.13;;;0.60;99.90;;;;;;5050608;28;20459;-68
2022/12/19 04:31:16;;;;;;;28.27;10.53;;;0.60;99.90;;;;;;5047243;28;20442;-67
2022/12/19 04:33:42;;;;;;;36.30;12.27;;;0.70;99.90;;;;;;5030242;28;20539;-67
2022/12/19 04:36:09;;;;;;;18.00;9.17;;;0.70;99.90;;;;;;5049563;28;20540;-67
2022/12/19 04:38:35;;;;;;;23.83;9.80;;;0.70;99.90;;;;;;5050168;28;20185;-67
2022/12/19 04:41:01;;;;;;;25.10;10.23;;;0.80;99.90;;;;;;5049983;28;20423;-67
2022/12/19 04:43:26;;;;;;;29.73;11.50;;;0.70;99.90;;;;;;5034710;28;20182;-68
2022/12/19 04:45:52;;;;;;;27.37;11.60;;;0.70;99.90;;;;;;5043014;28;20243;-67
2022/12/19 04:48:17;;;;;;;23.73;11.97;;;0.60;99.90;;;;;;5039578;28;20285;-68
2022/12/19 04:50:43;;;;;;;26.07;9.87;;;0.60;99.90;;;;;;5047171;28;20178;-68
2022/12/19 04:53:09;;;;;;;22.73;11.13;;;0.60;99.90;;;;;;5032470;28;20639;-68
2022/12/19 04:55:35;;;;;;;28.43;11.70;;;0.70;99.90;;;;;;5046098;28;20182;-68
2022/12/19 04:58:02;;;;;;;24.80;11.60;;;0.60;99.90;;;;;;5044090;28;20222;-68
2022/12/19 05:00:27;;;;;;;29.63;11.50;;;0.60;99.90;;;;;;5033389;28;20269;-67
2022/12/19 05:02:53;;;;;;;16.37;9.27;;;0.60;99.90;;;;;;5033646;28;20562;-68
2022/12/19 05:05:18;;;;;;;24.80;9.43;;;0.60;99.90;;;;;;5049866;28;20696;-68
2022/12/19 05:07:45;;;;;;;27.67;10.03;;;0.60;99.90;;;;;;5053558;28;20320;-67
2022/12/19 05:10:11;;;;;;;19.90;9.80;;;0.60;99.90;;;;;;5037117;28;20210;-68
2022/12/19 05:12:37;;;;;;;21.13;9.83;;;0.70;99.90;;;;;;5037349;28;20459;-68
2022/12/19 05:15:03;;;;;;;23.97;10.30;;;0.70;99.90;;;;;;5039903;28;20265;-67
2022/12/19 05:17:29;;;;;;;27.00;9.23;;;0.70;99.90;;;;;;5043256;28;20638;-67
2022/12/19 05:19:54;;;;;;;27.77;9.30;;;0.80;99.90;;;;;;5050902;28;20530;-67
2022/12/19 05:22:20;;;;;;;17.20;7.20;;;0.90;99.90;;;;;;5041843;28;20563;-67
2022/12/19 05:24:45;;;;;;;17.40;9.13;;;1.00;99.90;;;;;;5052989;28;20181;-68
2022/12/19 05:27:11;;;;;;;29.00;11.70;;;1.00;99.90;;;;;;5044447;28;20594;-68
2022/12/19 05:29:36;;;;;;;23.70;10.73;;;1.10;99.90;;;;;;5048198;28;20247;-67
2022/12/19 05:32:02;;;;;;;25.90;9.97;;;1.00;99.90;;;;;;5052848;28;20189;-67
2022/12/19 05:34:28;;;;;;;21.07;9.13;;;1.00;99.90;;;;;;5050878;28;20174;-67
2022/12/19 05:36:53;;;;;;;22.73;8.63;;;1.00;99.90;;;;;;5041462;28;20182;-67
2022/12/19 05:39:19;;;;;;;21.73;9.00;;;1.00;99.90;;;;;;5039125;28;20190;-68
2022/12/19 05:41:45;;;;;;;24.87;7.77;;;1.00;99.90;;;;;;5044539;28;20194;-67
2022/12/19 05:44:10;;;;;;;19.67;7.93;;;1.00;99.90;;;;;;5045382;28;20178;-67
2022/12/19 05:46:36;;;;;;;17.20;7.20;;;1.10;99.90;;;;;;5041346;28;20295;-67
2022/12/19 05:49:01;;;;;;;19.03;8.00;;;1.10;99.90;;;;;;5039182;28;20210;-68
2022/12/19 05:51:27;;;;;;;29.73;10.60;;;1.10;99.90;;;;;;5052553;28;20181;-68
2022/12/19 05:53:52;;;;;;;18.63;7.97;;;1.20;99.90;;;;;;5041146;28;20179;-67
2022/12/19 05:56:21;;;;;;;15.23;7.63;;;1.20;99.90;;;;;;5052675;28;20184;-68
2022/12/19 05:58:47;;;;;;;15.03;7.93;;;1.20;99.90;;;;;;5052698;28;20243;-68
2022/12/19 06:01:16;;;;;;;17.93;8.67;;;1.20;99.90;;;;;;5042542;28;20432;-68
2022/12/19 06:03:42;;;;;;;26.23;8.67;;;1.20;99.90;;;;;;5025694;28;20444;-68
2022/12/19 06:06:20;;;;;;;19.13;9.30;;;1.30;99.90;;;;;;5029330;28;20437;-68
2022/12/19 06:08:46;;;;;;;23.67;7.97;;;1.30;99.90;;;;;;5024984;28;20453;-68
2022/12/19 06:11:12;;;;;;;26.73;8.27;;;1.30;99.90;;;;;;5027051;28;20425;-68
2022/12/19 06:13:39;;;;;;;20.37;8.20;;;1.30;99.90;;;;;;5030756;28;20190;-67
2022/12/19 06:16:09;;;;;;;19.23;8.63;;;1.30;99.90;;;;;;5031923;28;20412;-67
2022/12/19 06:18:34;;;;;;;14.03;9.07;;;1.30;99.90;;;;;;5032266;28;20413;-68
2022/12/19 06:21:02;;;;;;;22.27;8.17;;;1.30;99.90;;;;;;5032002;28;20452;-67
2022/12/19 06:23:30;;;;;;;20.10;7.73;;;1.30;99.90;;;;;;5031395;28;20228;-67
2022/12/19 06:25:57;;;;;;;16.73;7.33;;;1.30;99.90;;;;;;5032137;28;20547;-67
2022/12/19 06:28:23;;;;;;;20.43;8.43;;;1.40;99.90;;;;;;5031919;28;20514;-67
2022/12/19 06:30:49;;;;;;;15.07;7.40;;;1.40;99.90;;;;;;5031632;28;20417;-68
2022/12/19 06:33:15;;;;;;;22.73;8.67;;;1.40;99.90;;;;;;5031424;28;20429;-68
2022/12/19 06:35:40;;;;;;;16.17;7.93;;;1.40;99.90;;;;;;5031750;28;20201;-68
2022/12/19 06:38:06;;;;;;;17.50;7.80;;;1.50;99.90;;;;;;5031490;28;20178;-68
2022/12/19 06:43:16;;;;;;;17.07;8.60;;;1.50;99.90;;;;;;5020456;28;20185;-68
2022/12/19 06:45:41;;;;;;;24.77;8.57;;;1.50;99.90;;;;;;5031247;28;20593;-68
2022/12/19 06:48:07;;;;;;;19.10;9.13;;;1.40;99.90;;;;;;5031954;28;20183;-69
2022/12/19 06:50:34;;;;;;;20.60;9.53;;;1.40;99.90;;;;;;5031442;28;20544;-69
2022/12/19 06:53:00;;;;;;;29.37;9.67;;;1.40;99.90;;;;;;5030746;28;20289;-68
2022/12/19 06:55:26;;;;;;;17.93;8.93;;;1.40;99.90;;;;;;5030850;28;20421;-68
2022/12/19 06:57:51;;;;;;;28.13;12.70;;;1.40;99.90;;;;;;5031049;28;20204;-69
2022/12/19 07:00:17;;;;;;;21.67;10.53;;;1.30;99.90;;;;;;5030413;28;20197;-68
2022/12/19 07:02:47;;;;;;;33.17;10.40;;;1.30;99.90;;;;;;5030549;28;20186;-69
2022/12/19 07:05:13;;;;;;;29.87;10.70;;;1.30;99.90;;;;;;5030535;28;20183;-68
2022/12/19 07:07:40;;;;;;;32.20;12.10;;;1.20;99.90;;;;;;5030309;28;20425;-68
2022/12/19 07:10:06;;;;;;;19.73;11.00;;;1.20;99.90;;;;;;5029499;28;20244;-68
2022/12/19 07:12:32;;;;;;;27.37;11.20;;;1.20;99.90;;;;;;5030337;28;20417;-68
2022/12/19 07:14:58;;;;;;;34.53;10.77;;;1.20;99.90;;;;;;5030238;28;20471;-68
2022/12/19 07:17:24;;;;;;;27.53;10.53;;;1.20;99.90;;;;;;5030667;28;20221;-68
2022/12/19 07:19:53;;;;;;;25.27;12.57;;;1.20;99.90;;;;;;5030491;28;20190;-68
2022/12/19 07:22:19;;;;;;;21.87;11.53;;;1.20;99.90;;;;;;5030301;28;20703;-68
2022/12/19 07:24:44;;;;;;;24.53;10.47;;;1.20;99.90;;;;;;5031179;28;20512;-68
2022/12/19 07:27:11;;;;;;;20.50;10.20;;;1.20;99.90;;;;;;5031560;28;20913;-68
2022/12/19 07:29:36;;;;;;;24.27;11.33;;;1.20;99.90;;;;;;5030072;28;20202;-69
2022/12/19 07:32:02;;;;;;;24.43;11.80;;;1.20;99.90;;;;;;5030967;28;20443;-68
2022/12/19 07:34:28;;;;;;;27.20;12.73;;;1.30;99.90;;;;;;5031095;28;20248;-67
2022/12/19 07:36:54;;;;;;;21.17;9.23;;;1.30;99.90;;;;;;5030728;28;20198;-68
2022/12/19 07:39:20;;;;;;;23.50;11.27;;;1.30;99.90;;;;;;5030892;28;20871;-67
2022/12/19 07:41:46;;;;;;;21.40;10.30;;;1.30;99.90;;;;;;5030595;28;20178;-67
2022/12/19 07:44:14;;;;;;;31.53;10.63;;;1.40;99.90;;;;;;5030169;28;21292;-68
2022/12/19 07:46:40;;;;;;;18.33;9.67;;;1.40;99.90;;;;;;5031135;28;20257;-67
2022/12/19 07:49:06;;;;;;;25.27;10.17;;;1.50;99.90;;;;;;5029965;28;20590;-67
2022/12/19 07:51:31;;;;;;;18.40;8.57;;;1.50;99.90;;;;;;5029462;28;20179;-67
2022/12/19 07:53:57;;;;;;;18.37;9.20;;;1.50;99.90;;;;;;5029465;28;20232;-67
2022/12/19 07:56:23;;;;;;;20.47;9.17;;;1.60;99.90;;;;;;5030166;28;20252;-67
2022/12/19 07:58:48;;;;;;;24.23;10.30;;;1.60;99.90;;;;;;5030004;28;20305;-67
2022/12/19 08:01:14;;;;;;;14.53;8.27;;;1.60;99.90;;;;;;5029665;28;20273;-67
2022/12/19 08:03:40;;;;;;;23.10;10.37;;;1.70;99.90;;;;;;5023042;28;20193;-67
2022/12/19 08:06:06;;;;;;;27.23;11.10;;;1.70;99.90;;;;;;5028392;28;20186;-67
2022/12/19 08:08:33;;;;;;;21.07;8.30;;;1.80;99.90;;;;;;5029233;28;20592;-67
2022/12/19 08:11:09;;;;;;;18.17;8.47;;;1.80;99.90;;;;;;5029707;28;20417;-67
2022/12/19 08:13:35;;;;;;;19.03;7.80;;;1.90;99.90;;;;;;5028149;28;20417;-67
2022/12/19 08:16:01;;;;;;;17.50;8.70;;;1.90;99.90;;;;;;5029814;28;20428;-66
2022/12/19 08:18:26;;;;;;;18.47;8.90;;;1.90;99.90;;;;;;5030215;28;20439;-67
2022/12/19 08:20:52;;;;;;;22.63;10.70;;;1.90;99.90;;;;;;5029798;28;20277;-67
2022/12/19 08:23:18;;;;;;;18.70;9.23;;;1.90;99.90;;;;;;5029360;28;20186;-67
2022/12/19 08:25:43;;;;;;;16.77;9.30;;;1.90;99.90;;;;;;5029788;28;20178;-66
2022/12/19 08:28:09;;;;;;;17.43;7.80;;;1.90;99.90;;;;;;5029884;28;20631;-66
2022/12/19 08:30:37;;;;;;;18.03;8.90;;;1.90;99.90;;;;;;5029510;28;20187;-66
2022/12/19 08:33:04;;;;;;;13.83;7.40;;;1.90;99.90;;;;;;5032353;28;20209;-66
2022/12/19 08:35:30;;;;;;;24.57;10.00;;;1.90;99.90;;;;;;5033426;28;20500;-66
2022/12/19 08:37:56;;;;;;;18.70;7.13;;;2.00;99.90;;;;;;5033205;28;20971;-66
2022/12/19 08:40:22;;;;;;;16.43;7.27;;;2.00;99.90;;;;;;5033572;28;20425;-66
2022/12/19 08:42:49;;;;;;;22.60;9.00;;;2.00;99.90;;;;;;5032964;28;20202;-66
2022/12/19 08:45:16;;;;;;;15.63;7.73;;;2.10;99.90;;;;;;5033149;28;20547;-66
2022/12/19 08:47:42;;;;;;;18.83;8.00;;;2.10;99.90;;;;;;5033621;28;20516;-66
2022/12/19 08:50:09;;;;;;;18.37;7.30;;;2.20;99.90;;;;;;5034043;28;20960;-66
2022/12/19 08:52:34;;;;;;;17.60;7.27;;;2.20;99.90;;;;;;5032857;28;20797;-67
2022/12/19 08:55:00;;;;;;;16.47;7.83;;;2.30;99.90;;;;;;5033992;28;20409;-66
2022/12/19 08:57:26;;;;;;;15.70;6.60;;;2.40;99.90;;;;;;5033923;28;20266;-66
2022/12/19 08:59:51;;;;;;;19.63;7.37;;;2.50;99.90;;;;;;5033308;28;20379;-67
2022/12/19 09:02:17;;;;;;;16.77;7.10;;;2.60;99.90;;;;;;5033274;28;20189;-67
2022/12/19 09:04:43;;;;;;;16.40;6.50;;;2.70;99.90;;;;;;5033801;28;20217;-67
2022/12/19 09:07:08;;;;;;;21.80;8.43;;;2.70;99.90;;;;;;5033627;28;20270;-67
2022/12/19 09:09:34;;;;;;;21.20;7.60;;;2.80;99.90;;;;;;5033265;28;20686;-67
2022/12/19 09:12:00;;;;;;;16.57;7.20;;;2.90;99.90;;;;;;5033156;28;20193;-67
2022/12/19 09:14:25;;;;;;;19.33;6.00;;;2.90;99.90;;;;;;5032785;28;20198;-67
2022/12/19 09:16:51;;;;;;;15.20;7.70;;;3.00;99.90;;;;;;5033334;28;20178;-67
2022/12/19 09:19:17;;;;;;;10.53;6.10;;;3.10;99.90;;;;;;5033375;28;20301;-67
2022/12/19 09:21:42;;;;;;;12.57;5.40;;;3.20;99.90;;;;;;5033085;28;20228;-67
2022/12/19 09:24:09;;;;;;;15.63;7.10;;;3.20;99.90;;;;;;5033103;28;20186;-67
2022/12/19 09:26:37;;;;;;;14.93;6.60;;;3.30;99.90;;;;;;5033403;28;20317;-67
2022/12/19 09:29:03;;;;;;;11.87;6.43;;;3.40;99.90;;;;;;5032553;28;20544;-67
2022/12/19 09:31:29;;;;;;;18.13;7.30;;;3.40;99.90;;;;;;5032691;28;20482;-67
2022/12/19 09:33:54;;;;;;;26.97;11.23;;;3.40;99.90;;;;;;5033260;28;20178;-67
2022/12/19 09:36:23;;;;;;;17.37;7.90;;;3.50;99.90;;;;;;5032769;28;20190;-67
2022/12/19 09:38:51;;;;;;;21.97;6.67;;;3.50;99.90;;;;;;5032628;28;20187;-67
2022/12/19 09:41:41;;;;;;;20.17;6.50;;;3.60;99.90;;;;;;5033178;28;20449;-67
2022/12/19 09:44:30;;;;;;;17.20;6.70;;;3.50;99.90;;;;;;5031264;28;20914;-67
2022/12/19 09:47:18;;;;;;;13.33;6.00;;;3.50;99.90;;;;;;5033555;28;20420;-68
2022/12/19 09:49:46;;;;;;;20.00;7.33;;;3.50;99.90;;;;;;5021478;28;20499;-68
2022/12/19 09:52:38;;;;;;;17.40;8.60;;;3.50;99.90;;;;;;5032569;28;20425;-67
2022/12/19 09:55:17;;;;;;;17.37;7.87;;;3.50;99.90;;;;;;5025523;28;20405;-68
2022/12/19 09:57:56;;;;;;;7.37;5.40;;;3.50;99.90;;;;;;5032819;28;20436;-67
2022/12/19 10:00:22;;;;;;;19.80;7.27;;;3.50;99.90;;;;;;5032260;28;20433;-67
2022/12/19 10:03:06;;;;;;;11.87;6.07;;;3.60;99.90;;;;;;5032463;28;21155;-67
2022/12/19 10:05:46;;;;;;;13.63;6.27;;;3.60;99.90;;;;;;5028115;28;20441;-68
2022/12/19 10:08:18;;;;;;;15.03;5.73;;;3.70;99.90;;;;;;5031735;28;20448;-68
2022/12/19 10:11:06;;;;;;;14.73;7.47;;;3.80;99.90;;;;;;5028832;28;20784;-67
2022/12/19 10:13:57;;;;;;;12.90;6.37;;;3.80;99.90;;;;;;5029808;28;20421;-67
2022/12/19 10:16:52;;;;;;;15.67;7.17;;;3.80;99.90;;;;;;5004175;28;20425;-67
2022/12/19 10:19:38;;;;;;;16.50;6.17;;;3.80;99.90;;;;;;5031546;28;20448;-67
2022/12/19 10:22:21;;;;;;;9.97;6.20;;;3.90;99.90;;;;;;5029492;28;20823;-67
2022/12/19 10:24:59;;;;;;;11.20;6.37;;;3.90;99.90;;;;;;5029556;28;20552;-66
2022/12/19 10:27:34;;;;;;;13.03;5.67;;;3.90;99.90;;;;;;5026303;28;20433;-66
2022/12/19 10:30:12;;;;;;;16.10;7.30;;;4.00;99.90;;;;;;5037357;28;20460;-66
2022/12/19 10:32:52;;;;;;;16.47;6.00;;;4.00;99.90;;;;;;5038359;28;20421;-69
2022/12/19 10:35:19;;;;;;;11.90;5.40;;;4.10;99.90;;;;;;5040589;28;20428;-68
2022/12/19 10:37:59;;;;;;;10.27;5.33;;;4.20;99.90;;;;;;5040775;28;20554;-68
2022/12/19 10:40:33;;;;;;;10.50;5.97;;;4.30;99.90;;;;;;5037471;28;20425;-68
2022/12/19 10:43:22;;;;;;;12.87;5.80;;;4.30;99.90;;;;;;5036600;28;20416;-67
2022/12/19 10:45:52;;;;;;;17.20;6.03;;;4.40;99.90;;;;;;5037796;28;20393;-68
2022/12/19 10:48:21;;;;;;;14.13;5.50;;;4.40;99.90;;;;;;5034636;28;20764;-67
2022/12/19 10:50:47;;;;;;;8.90;5.40;;;4.40;99.90;;;;;;5032742;28;20413;-67
2022/12/19 10:53:14;;;;;;;11.27;5.97;;;4.50;99.90;;;;;;5032351;28;20928;-67
2022/12/19 10:55:45;;;;;;;13.97;5.47;;;4.60;99.90;;;;;;5032455;28;20205;-67
2022/12/19 10:58:19;;;;;;;10.10;5.20;;;4.70;99.90;;;;;;5032928;28;20437;-67
2022/12/19 11:00:56;;;;;;;11.53;5.70;;;4.80;99.90;;;;;;5032315;28;20417;-67
2022/12/19 11:03:22;;;;;;;14.63;6.47;;;4.90;99.90;;;;;;5031803;28;20425;-67
2022/12/19 11:05:49;;;;;;;12.83;5.77;;;5.00;99.90;;;;;;5032123;28;20422;-67
2022/12/19 11:08:19;;;;;;;15.13;6.40;;;5.10;99.90;;;;;;5032065;28;20245;-67
2022/12/19 11:10:48;;;;;;;10.10;5.27;;;5.10;99.90;;;;;;5026670;28;20745;-67
2022/12/19 11:13:25;;;;;;;14.30;5.20;;;5.30;99.90;;;;;;5031614;28;20428;-67
2022/12/19 11:15:58;;;;;;;10.93;5.47;;;5.30;99.90;;;;;;5031484;28;20900;-67
2022/12/19 11:18:42;;;;;;;10.27;5.00;;;5.40;99.90;;;;;;5032294;28;20421;-68
2022/12/19 11:21:31;;;;;;;11.07;5.37;;;5.40;99.90;;;;;;5032294;28;20409;-67
2022/12/19 11:24:03;;;;;;;12.40;4.70;;;5.40;99.90;;;;;;5021494;28;20413;-67
2022/12/19 11:26:40;;;;;;;12.67;6.00;;;5.30;99.90;;;;;;5032040;28;20496;-67
2022/12/19 11:29:24;;;;;;;13.97;5.30;;;5.20;99.90;;;;;;5031640;28;20530;-66
2022/12/19 11:31:57;;;;;;;11.03;5.63;;;5.20;99.90;;;;;;5019018;28;20423;-67
2022/12/19 11:34:25;;;;;;;10.70;5.07;;;5.20;99.90;;;;;;5031410;28;20771;-67
2022/12/19 11:36:55;;;;;;;11.90;5.87;;;5.10;99.90;;;;;;5031698;28;20958;-66
2022/12/19 11:39:42;;;;;;;11.50;5.10;;;5.10;99.90;;;;;;5031230;28;20421;-67
2022/12/19 11:42:23;;;;;;;12.27;5.70;;;5.10;99.90;;;;;;5031409;28;20417;-66
2022/12/19 11:45:13;;;;;;;12.70;6.00;;;5.00;99.90;;;;;;5018500;28;20412;-67
2022/12/19 11:47:44;;;;;;;11.10;5.33;;;5.00;99.90;;;;;;5030913;28;20968;-67
2022/12/19 11:50:25;;;;;;;15.17;6.83;;;5.10;99.90;;;;;;5030911;28;20484;-67
2022/12/19 11:53:12;;;;;;;10.40;5.30;;;5.20;99.90;;;;;;5030234;28;20409;-67
2022/12/19 11:55:53;;;;;;;12.80;6.30;;;5.30;99.90;;;;;;5030815;28;20424;-67
2022/12/19 11:58:21;;;;;;;19.40;7.00;;;5.40;99.90;;;;;;5031084;28;20525;-67
2022/12/19 12:01:04;;;;;;;10.47;5.23;;;5.50;99.90;;;;;;5030132;28;20551;-67
2022/12/19 12:03:53;;;;;;;10.17;5.13;;;5.60;99.90;;;;;;5025787;28;20409;-68
2022/12/19 12:06:19;;;;;;;9.13;4.00;;;5.60;99.90;;;;;;5027063;28;20444;-67
2022/12/19 12:08:57;;;;;;;9.97;4.90;;;5.60;99.90;;;;;;5029430;28;20472;-67
2022/12/19 12:11:25;;;;;;;8.30;4.80;;;5.60;99.90;;;;;;5031161;28;20632;-67
2022/12/19 12:14:16;;;;;;;10.50;5.33;;;5.60;99.90;;;;;;5033970;28;20459;-68
2022/12/19 12:17:24;;;;;;;14.97;6.20;;;5.60;99.90;;;;;;5030590;28;20427;-68
2022/12/19 12:20:00;;;;;;;10.03;5.30;;;5.60;99.90;;;;;;5002678;28;20474;-69
2022/12/19 12:22:50;;;;;;;13.20;5.97;;;5.70;99.90;;;;;;5033175;28;20455;-66
2022/12/19 12:25:16;;;;;;;12.33;5.17;;;5.70;99.90;;;;;;5035877;28;20413;-68
2022/12/19 12:27:41;;;;;;;21.00;5.97;;;5.60;99.90;;;;;;5037464;28;20428;-68
2022/12/19 12:30:10;;;;;;;17.17;6.13;;;5.70;99.90;;;;;;5036992;28;20198;-68
2022/12/19 12:32:50;;;;;;;12.93;5.70;;;5.70;99.90;;;;;;5036675;28;20182;-68
2022/12/19 12:35:36;;;;;;;11.07;5.00;;;5.60;99.90;;;;;;5037284;28;20433;-69
2022/12/19 12:38:23;;;;;;;17.10;6.13;;;5.60;99.90;;;;;;5018800;28;20425;-67
2022/12/19 12:40:56;;;;;;;18.73;5.77;;;5.60;99.90;;;;;;5037106;28;20423;-67
2022/12/19 12:43:43;;;;;;;12.47;5.53;;;5.50;99.90;;;;;;5037109;28;20503;-67
2022/12/19 12:46:15;;;;;;;8.10;4.60;;;5.60;99.90;;;;;;5036412;28;20424;-66
2022/12/19 12:48:51;;;;;;;16.87;6.07;;;5.60;99.90;;;;;;5037581;28;20452;-67
2022/12/19 12:51:17;;;;;;;16.37;5.90;;;5.60;99.90;;;;;;5019657;28;20438;-67
2022/12/19 12:53:45;;;;;;;8.20;4.90;;;5.60;99.90;;;;;;5036295;28;20435;-67
2022/12/19 12:56:14;;;;;;;12.70;5.50;;;5.60;99.90;;;;;;5037211;28;20421;-67
2022/12/19 12:58:46;;;;;;;16.03;5.73;;;5.60;99.90;;;;;;5036881;28;20526;-67
2022/12/19 13:01:28;;;;;;;9.47;4.40;;;5.60;99.90;;;;;;5036552;28;20421;-67
2022/12/19 13:04:18;;;;;;;12.23;5.10;;;5.70;99.90;;;;;;5036801;28;20416;-67